sensor_id;sensor_type;location;lat;lon;timestamp;pressure;altitude;pressure_sealevel;temperature;humidity
64758;BME280;51193;45.588;5.376;2022-10-16T01:37:47;96301.22;;;17.08;59.08
64758;BME280;51193;45.588;5.376;2022-10-16T01:47:11;96300.66;;;17.03;61.17
64758;BME280;51193;45.588;5.376;2022-10-16T01:53:14;96302.53;;;17.01;61.69
64758;BME280;51193;45.588;5.376;2022-10-16T01:56:08;96299.13;;;16.99;62.93
64758;BME280;51193;45.588;5.376;2022-10-16T02:05:34;96293.66;;;17.02;63.14
64758;BME280;51193;45.588;5.376;2022-10-16T02:08:09;96288.91;;;16.93;63.54
64758;BME280;51193;45.588;5.376;2022-10-16T02:10:52;96289.41;;;16.67;63.50
64758;BME280;51193;45.588;5.376;2022-10-16T02:16:41;96275.44;;;16.81;63.62
64758;BME280;51193;45.588;5.376;2022-10-16T02:22:47;96264.56;;;16.72;63.71
64758;BME280;51193;45.588;5.376;2022-10-16T02:25:35;96281.72;;;16.79;63.45
64758;BME280;51193;45.588;5.376;2022-10-16T02:31:38;96289.31;;;17.01;62.44
64758;BME280;51193;45.588;5.376;2022-10-16T02:34:36;96282.31;;;17.00;62.72
64758;BME280;51193;45.588;5.376;2022-10-16T02:37:26;96282.50;;;16.97;63.49
64758;BME280;51193;45.588;5.376;2022-10-16T02:40:10;96274.94;;;16.91;63.83
64758;BME280;51193;45.588;5.376;2022-10-16T02:46:13;96273.81;;;17.11;63.86
64758;BME280;51193;45.588;5.376;2022-10-16T02:49:34;96272.75;;;17.13;64.01
64758;BME280;51193;45.588;5.376;2022-10-16T02:52:28;96273.84;;;17.25;63.02
64758;BME280;51193;45.588;5.376;2022-10-16T02:55:04;96271.44;;;17.20;63.83
64758;BME280;51193;45.588;5.376;2022-10-16T02:57:41;96281.66;;;17.26;63.72
64758;BME280;51193;45.588;5.376;2022-10-16T03:00:52;96279.97;;;17.25;63.23
64758;BME280;51193;45.588;5.376;2022-10-16T03:03:46;96278.09;;;17.27;62.46
64758;BME280;51193;45.588;5.376;2022-10-16T03:07:11;96287.97;;;17.24;62.59
64758;BME280;51193;45.588;5.376;2022-10-16T03:09:33;96287.41;;;17.19;62.39
64758;BME280;51193;45.588;5.376;2022-10-16T03:15:20;96279.56;;;17.17;62.52
64758;BME280;51193;45.588;5.376;2022-10-16T03:18:11;96277.09;;;17.14;62.59
64758;BME280;51193;45.588;5.376;2022-10-16T03:24:10;96285.19;;;17.27;61.76
64758;BME280;51193;45.588;5.376;2022-10-16T03:27:13;96293.88;;;17.29;61.91
64758;BME280;51193;45.588;5.376;2022-10-16T03:30:12;96289.91;;;17.06;62.50
64758;BME280;51193;45.588;5.376;2022-10-16T03:32:44;96294.25;;;17.07;63.00
64758;BME280;51193;45.588;5.376;2022-10-16T03:35:50;96293.13;;;17.11;62.77
64758;BME280;51193;45.588;5.376;2022-10-16T03:38:34;96302.59;;;17.15;62.49
64758;BME280;51193;45.588;5.376;2022-10-16T03:41:32;96294.66;;;17.15;62.18
64758;BME280;51193;45.588;5.376;2022-10-16T03:50:40;96303.44;;;17.00;62.49
64758;BME280;51193;45.588;5.376;2022-10-16T03:53:31;96303.88;;;17.08;62.11
64758;BME280;51193;45.588;5.376;2022-10-16T03:56:20;96308.91;;;17.13;61.78
64758;BME280;51193;45.588;5.376;2022-10-16T04:02:45;96309.47;;;17.18;61.50
64758;BME280;51193;45.588;5.376;2022-10-16T04:06:04;96303.78;;;17.09;61.76
64758;BME280;51193;45.588;5.376;2022-10-16T04:15:18;96308.78;;;17.14;61.53
64758;BME280;51193;45.588;5.376;2022-10-16T04:33:58;96308.63;;;17.17;61.26
64758;BME280;51193;45.588;5.376;2022-10-16T04:36:40;96311.34;;;17.16;61.33
64758;BME280;51193;45.588;5.376;2022-10-16T04:42:38;96304.53;;;17.12;60.64
64758;BME280;51193;45.588;5.376;2022-10-16T04:45:36;96322.59;;;17.19;60.11
64758;BME280;51193;45.588;5.376;2022-10-16T04:51:37;96324.28;;;17.20;60.32
64758;BME280;51193;45.588;5.376;2022-10-16T04:54:27;96307.47;;;17.07;60.75
64758;BME280;51193;45.588;5.376;2022-10-16T04:57:12;96316.41;;;17.04;60.93
64758;BME280;51193;45.588;5.376;2022-10-16T04:59:55;96317.44;;;17.02;60.81
64758;BME280;51193;45.588;5.376;2022-10-16T05:03:07;96314.78;;;17.02;60.63
64758;BME280;51193;45.588;5.376;2022-10-16T05:05:57;96314.97;;;16.99;60.74
64758;BME280;51193;45.588;5.376;2022-10-16T05:08:30;96304.56;;;16.96;60.67
64758;BME280;51193;45.588;5.376;2022-10-16T05:11:06;96305.69;;;16.92;60.76
64758;BME280;51193;45.588;5.376;2022-10-16T05:13:48;96313.78;;;16.88;61.19
64758;BME280;51193;45.588;5.376;2022-10-16T05:16:35;96317.84;;;16.78;61.36
64758;BME280;51193;45.588;5.376;2022-10-16T05:22:41;96314.09;;;16.50;61.80
64758;BME280;51193;45.588;5.376;2022-10-16T05:25:34;96315.72;;;16.53;61.93
64758;BME280;51193;45.588;5.376;2022-10-16T05:33:46;96321.50;;;16.60;61.36
64758;BME280;51193;45.588;5.376;2022-10-16T05:39:28;96323.31;;;16.59;61.63
64758;BME280;51193;45.588;5.376;2022-10-16T05:42:04;96327.81;;;16.57;61.56
64758;BME280;51193;45.588;5.376;2022-10-16T05:44:42;96322.63;;;16.56;61.57
64758;BME280;51193;45.588;5.376;2022-10-16T05:47:13;96324.50;;;16.54;61.47
64758;BME280;51193;45.588;5.376;2022-10-16T05:49:43;96322.13;;;16.49;61.36
64758;BME280;51193;45.588;5.376;2022-10-16T05:52:54;96321.44;;;16.45;61.39
64758;BME280;51193;45.588;5.376;2022-10-16T05:55:58;96333.06;;;16.41;61.42
64758;BME280;51193;45.588;5.376;2022-10-16T05:58:40;96330.44;;;16.41;61.50
64758;BME280;51193;45.588;5.376;2022-10-16T06:01:35;96329.59;;;16.41;61.53
64758;BME280;51193;45.588;5.376;2022-10-16T06:07:47;96337.50;;;16.41;61.56
64758;BME280;51193;45.588;5.376;2022-10-16T06:10:40;96344.47;;;16.42;61.44
64758;BME280;51193;45.588;5.376;2022-10-16T06:13:14;96349.00;;;16.40;61.44
64758;BME280;51193;45.588;5.376;2022-10-16T06:16:01;96356.06;;;16.39;61.75
64758;BME280;51193;45.588;5.376;2022-10-16T06:18:52;96353.41;;;16.39;61.64
64758;BME280;51193;45.588;5.376;2022-10-16T06:22:12;96363.13;;;16.39;61.95
64758;BME280;51193;45.588;5.376;2022-10-16T06:25:18;96362.44;;;16.35;62.08
64758;BME280;51193;45.588;5.376;2022-10-16T06:28:28;96375.63;;;16.35;61.73
64758;BME280;51193;45.588;5.376;2022-10-16T06:31:26;96373.00;;;16.35;62.18
64758;BME280;51193;45.588;5.376;2022-10-16T06:34:13;96368.41;;;16.39;62.04
64758;BME280;51193;45.588;5.376;2022-10-16T06:40:19;96353.34;;;16.41;61.88
64758;BME280;51193;45.588;5.376;2022-10-16T06:42:54;96353.41;;;16.39;61.80
64758;BME280;51193;45.588;5.376;2022-10-16T06:45:24;96356.13;;;16.38;61.80
64758;BME280;51193;45.588;5.376;2022-10-16T06:47:54;96350.16;;;16.34;62.22
64758;BME280;51193;45.588;5.376;2022-10-16T06:50:54;96349.50;;;16.31;62.40
64758;BME280;51193;45.588;5.376;2022-10-16T06:53:36;96354.72;;;16.48;62.03
64758;BME280;51193;45.588;5.376;2022-10-16T06:56:08;96356.94;;;16.56;62.03
64758;BME280;51193;45.588;5.376;2022-10-16T06:58:43;96361.47;;;17.01;61.24
64758;BME280;51193;45.588;5.376;2022-10-16T07:01:28;96379.53;;;16.93;61.73
64758;BME280;51193;45.588;5.376;2022-10-16T07:04:28;96389.63;;;16.69;61.94
64758;BME280;51193;45.588;5.376;2022-10-16T07:07:16;96387.66;;;16.57;62.79
64758;BME280;51193;45.588;5.376;2022-10-16T07:09:52;96397.44;;;16.55;63.05
64758;BME280;51193;45.588;5.376;2022-10-16T07:12:41;96390.81;;;16.47;62.54
64758;BME280;51193;45.588;5.376;2022-10-16T07:16:06;96399.25;;;16.54;62.66
64758;BME280;51193;45.588;5.376;2022-10-16T07:18:50;96409.31;;;16.63;62.56
64758;BME280;51193;45.588;5.376;2022-10-16T07:21:28;96418.00;;;16.65;62.36
64758;BME280;51193;45.588;5.376;2022-10-16T07:24:20;96423.72;;;16.74;62.36
64758;BME280;51193;45.588;5.376;2022-10-16T07:26:49;96426.06;;;16.96;61.95
64758;BME280;51193;45.588;5.376;2022-10-16T07:29:24;96431.78;;;17.36;60.78
64758;BME280;51193;45.588;5.376;2022-10-16T07:32:42;96454.47;;;18.61;59.33
64758;BME280;51193;45.588;5.376;2022-10-16T08:03:46;96486.75;;;19.52;55.38
64758;BME280;51193;45.588;5.376;2022-10-16T08:06:44;96479.13;;;21.19;52.34
64758;BME280;51193;45.588;5.376;2022-10-16T08:19:46;96497.38;;;26.69;42.84
64758;BME280;51193;45.588;5.376;2022-10-16T08:22:12;96497.78;;;27.21;42.49
64758;BME280;51193;45.588;5.376;2022-10-16T08:24:38;96496.47;;;27.45;41.55
64758;BME280;51193;45.588;5.376;2022-10-16T08:27:03;96484.97;;;27.25;42.32
64758;BME280;51193;45.588;5.376;2022-10-16T08:29:28;96481.22;;;26.88;43.04
64758;BME280;51193;45.588;5.376;2022-10-16T08:31:54;96488.06;;;27.20;42.26
64758;BME280;51193;45.588;5.376;2022-10-16T08:34:19;96490.19;;;27.54;42.00
64758;BME280;51193;45.588;5.376;2022-10-16T08:36:44;96496.41;;;27.82;41.72
64758;BME280;51193;45.588;5.376;2022-10-16T08:39:09;96493.84;;;27.81;41.18
64758;BME280;51193;45.588;5.376;2022-10-16T08:49:11;96499.53;;;27.13;40.36
64758;BME280;51193;45.588;5.376;2022-10-16T08:51:37;96498.97;;;27.09;39.89
64758;BME280;51193;45.588;5.376;2022-10-16T08:54:03;96503.84;;;26.57;39.39
64758;BME280;51193;45.588;5.376;2022-10-16T08:56:29;96506.28;;;26.11;39.05
64758;BME280;51193;45.588;5.376;2022-10-16T08:58:55;96499.94;;;25.72;39.66
64758;BME280;51193;45.588;5.376;2022-10-16T09:01:22;96503.28;;;25.54;39.89
64758;BME280;51193;45.588;5.376;2022-10-16T09:04:01;96500.75;;;25.53;39.76
64758;BME280;51193;45.588;5.376;2022-10-16T09:06:39;96488.09;;;25.24;40.33
64758;BME280;51193;45.588;5.376;2022-10-16T09:09:23;96496.91;;;25.15;40.56
64758;BME280;51193;45.588;5.376;2022-10-16T09:11:59;96490.75;;;24.93;40.67
64758;BME280;51193;45.588;5.376;2022-10-16T09:16:56;96510.09;;;24.43;39.50
64758;BME280;51193;45.588;5.376;2022-10-16T09:21:48;96509.66;;;23.95;41.07
64758;BME280;51193;45.588;5.376;2022-10-16T09:24:14;96503.94;;;23.99;41.41
64758;BME280;51193;45.588;5.376;2022-10-16T09:26:41;96517.78;;;24.04;41.37
64758;BME280;51193;45.588;5.376;2022-10-16T09:29:06;96517.19;;;24.01;41.94
64758;BME280;51193;45.588;5.376;2022-10-16T09:31:35;96521.91;;;23.97;41.59
64758;BME280;51193;45.588;5.376;2022-10-16T09:34:02;96517.19;;;24.01;41.83
64758;BME280;51193;45.588;5.376;2022-10-16T09:36:32;96515.50;;;24.00;42.19
64758;BME280;51193;45.588;5.376;2022-10-16T09:39:02;96526.69;;;23.94;41.55
64758;BME280;51193;45.588;5.376;2022-10-16T09:41:27;96519.41;;;23.73;42.68
64758;BME280;51193;45.588;5.376;2022-10-16T09:46:22;96525.34;;;23.88;42.41
64758;BME280;51193;45.588;5.376;2022-10-16T09:48:49;96527.53;;;23.94;42.80
64758;BME280;51193;45.588;5.376;2022-10-16T09:51:31;96531.16;;;24.04;42.41
64758;BME280;51193;45.588;5.376;2022-10-16T09:53:58;96534.81;;;23.92;42.45
64758;BME280;51193;45.588;5.376;2022-10-16T09:56:27;96542.03;;;24.13;41.84
64758;BME280;51193;45.588;5.376;2022-10-16T09:58:53;96541.22;;;24.01;42.40
64758;BME280;51193;45.588;5.376;2022-10-16T10:01:19;96537.94;;;24.08;42.26
64758;BME280;51193;45.588;5.376;2022-10-16T10:03:44;96536.47;;;24.04;42.60
64758;BME280;51193;45.588;5.376;2022-10-16T10:06:18;96538.16;;;24.17;42.13
64758;BME280;51193;45.588;5.376;2022-10-16T10:08:59;96530.75;;;24.09;42.11
64758;BME280;51193;45.588;5.376;2022-10-16T10:14:06;96531.59;;;24.09;41.90
64758;BME280;51193;45.588;5.376;2022-10-16T10:16:31;96536.09;;;24.09;42.43
64758;BME280;51193;45.588;5.376;2022-10-16T10:19:00;96523.47;;;24.11;42.42
64758;BME280;51193;45.588;5.376;2022-10-16T10:21:25;96534.28;;;24.09;42.17
64758;BME280;51193;45.588;5.376;2022-10-16T10:23:56;96524.16;;;24.24;42.72
64758;BME280;51193;45.588;5.376;2022-10-16T10:26:23;96519.78;;;24.44;42.53
64758;BME280;51193;45.588;5.376;2022-10-16T10:46:41;96513.31;;;24.79;40.99
64758;BME280;51193;45.588;5.376;2022-10-16T10:54:42;96515.06;;;25.11;41.00
64758;BME280;51193;45.588;5.376;2022-10-16T11:02:26;96504.47;;;25.09;40.04
64758;BME280;51193;45.588;5.376;2022-10-16T11:07:24;96503.53;;;24.89;38.76
64758;BME280;51193;45.588;5.376;2022-10-16T11:09:52;96499.22;;;24.77;39.87
64758;BME280;51193;45.588;5.376;2022-10-16T11:12:20;96495.38;;;24.91;40.34
64758;BME280;51193;45.588;5.376;2022-10-16T11:14:51;96499.53;;;25.05;40.45
64758;BME280;51193;45.588;5.376;2022-10-16T11:17:27;96503.34;;;25.02;39.87
64758;BME280;51193;45.588;5.376;2022-10-16T11:19:56;96500.13;;;24.87;40.75
64758;BME280;51193;45.588;5.376;2022-10-16T11:25:00;96502.91;;;24.76;40.48
64758;BME280;51193;45.588;5.376;2022-10-16T11:27:34;96494.94;;;24.65;40.90
64758;BME280;51193;45.588;5.376;2022-10-16T11:30:02;96494.81;;;24.66;40.90
64758;BME280;51193;45.588;5.376;2022-10-16T11:32:31;96493.56;;;24.70;40.97
64758;BME280;51193;45.588;5.376;2022-10-16T11:35:00;96499.22;;;24.77;41.30
64758;BME280;51193;45.588;5.376;2022-10-16T11:37:29;96500.94;;;24.78;40.10
64758;BME280;51193;45.588;5.376;2022-10-16T11:39:57;96494.09;;;24.64;40.39
64758;BME280;51193;45.588;5.376;2022-10-16T12:08:33;96494.19;;;24.09;40.88
64758;BME280;51193;45.588;5.376;2022-10-16T12:14:39;96486.25;;;23.87;42.14
64758;BME280;51193;45.588;5.376;2022-10-16T12:30:33;96482.13;;;23.83;41.53
64758;BME280;51193;45.588;5.376;2022-10-16T12:53:45;96478.63;;;23.94;41.18
64758;BME280;51193;45.588;5.376;2022-10-16T13:14:02;96467.22;;;24.45;40.37
64758;BME280;51193;45.588;5.376;2022-10-16T13:17:19;96461.50;;;24.38;40.23
64758;BME280;51193;45.588;5.376;2022-10-16T13:28:58;96467.47;;;24.84;41.78
64758;BME280;51193;45.588;5.376;2022-10-16T13:31:23;96461.19;;;24.95;41.21
64758;BME280;51193;45.588;5.376;2022-10-16T13:33:50;96463.16;;;24.93;40.73
64758;BME280;51193;45.588;5.376;2022-10-16T13:36:23;96465.00;;;24.92;40.64
64758;BME280;51193;45.588;5.376;2022-10-16T13:38:58;96461.91;;;24.97;40.80
64758;BME280;51193;45.588;5.376;2022-10-16T13:41:25;96464.41;;;24.88;40.86
64758;BME280;51193;45.588;5.376;2022-10-16T13:43:50;96471.72;;;24.86;41.12
64758;BME280;51193;45.588;5.376;2022-10-16T13:52:15;96467.81;;;24.69;41.14
64758;BME280;51193;45.588;5.376;2022-10-16T13:54:41;96458.03;;;24.59;41.38
64758;BME280;51193;45.588;5.376;2022-10-16T13:57:07;96469.00;;;24.44;41.71
64758;BME280;51193;45.588;5.376;2022-10-16T14:13:57;96493.13;;;24.12;42.04
64758;BME280;51193;45.588;5.376;2022-10-16T15:18:15;96517.44;;;23.98;44.90
64758;BME280;51193;45.588;5.376;2022-10-16T15:20:47;96523.88;;;23.95;44.74
64758;BME280;51193;45.588;5.376;2022-10-16T15:23:17;96525.59;;;23.85;44.96
64758;BME280;51193;45.588;5.376;2022-10-16T15:26:01;96519.78;;;23.80;44.98
64758;BME280;51193;45.588;5.376;2022-10-16T15:28:30;96530.09;;;23.73;44.68
64758;BME280;51193;45.588;5.376;2022-10-16T15:30:55;96522.09;;;23.62;45.52
64758;BME280;51193;45.588;5.376;2022-10-16T15:33:22;96526.31;;;23.64;44.99
64758;BME280;51193;45.588;5.376;2022-10-16T15:35:51;96517.25;;;23.78;44.46
64758;BME280;51193;45.588;5.376;2022-10-16T15:38:17;96526.25;;;23.77;44.89
64758;BME280;51193;45.588;5.376;2022-10-16T15:40:43;96516.41;;;23.78;44.62
64758;BME280;51193;45.588;5.376;2022-10-16T15:43:08;96514.44;;;23.80;44.39
64758;BME280;51193;45.588;5.376;2022-10-16T15:45:34;96521.84;;;23.87;43.91
64758;BME280;51193;45.588;5.376;2022-10-16T15:47:59;96523.28;;;23.92;44.00
64758;BME280;51193;45.588;5.376;2022-10-16T15:50:24;96514.06;;;23.84;44.11
64758;BME280;51193;45.588;5.376;2022-10-16T15:52:50;96527.78;;;23.68;43.54
64758;BME280;51193;45.588;5.376;2022-10-16T15:55:16;96515.06;;;23.49;43.61
64758;BME280;51193;45.588;5.376;2022-10-16T15:57:42;96517.84;;;23.48;43.63
64758;BME280;51193;45.588;5.376;2022-10-16T16:00:12;96510.97;;;23.34;43.77
64758;BME280;51193;45.588;5.376;2022-10-16T16:02:38;96515.19;;;23.25;43.87
64758;BME280;51193;45.588;5.376;2022-10-16T16:05:03;96514.47;;;23.35;42.77
64758;BME280;51193;45.588;5.376;2022-10-16T16:07:32;96517.50;;;23.19;43.44
64758;BME280;51193;45.588;5.376;2022-10-16T18:45:39;96693.63;;;20.09;58.59
64758;BME280;51193;45.588;5.376;2022-10-16T18:48:36;96703.13;;;19.99;58.88
64758;BME280;51193;45.588;5.376;2022-10-16T18:54:45;96719.25;;;19.96;60.73
64758;BME280;51193;45.588;5.376;2022-10-16T18:57:32;96720.09;;;19.97;60.92
64758;BME280;51193;45.588;5.376;2022-10-16T19:00:17;96708.03;;;20.05;60.78
64758;BME280;51193;45.588;5.376;2022-10-16T19:31:51;96715.03;;;19.49;62.86
64758;BME280;51193;45.588;5.376;2022-10-16T19:48:39;96718.94;;;19.58;63.33
64758;BME280;51193;45.588;5.376;2022-10-16T19:51:30;96716.09;;;19.46;62.93
64758;BME280;51193;45.588;5.376;2022-10-16T19:54:20;96716.84;;;19.48;62.52
64758;BME280;51193;45.588;5.376;2022-10-16T19:57:21;96731.06;;;19.62;62.85
64758;BME280;51193;45.588;5.376;2022-10-16T20:37:46;96753.00;;;19.35;62.42
64758;BME280;51193;45.588;5.376;2022-10-16T20:44:06;96769.41;;;19.56;63.77
64758;BME280;51193;45.588;5.376;2022-10-16T20:47:06;96769.78;;;19.50;63.32
64758;BME280;51193;45.588;5.376;2022-10-16T20:50:02;96775.44;;;19.44;62.93
64758;BME280;51193;45.588;5.376;2022-10-16T21:06:04;96767.94;;;19.22;63.64
64758;BME280;51193;45.588;5.376;2022-10-16T21:09:06;96764.50;;;19.20;63.58
64758;BME280;51193;45.588;5.376;2022-10-16T21:12:47;96765.38;;;19.20;63.68
64758;BME280;51193;45.588;5.376;2022-10-16T21:42:58;96788.75;;;18.98;64.41
64758;BME280;51193;45.588;5.376;2022-10-16T22:22:51;96802.66;;;18.38;67.49
64758;BME280;51193;45.588;5.376;2022-10-16T22:25:39;96804.63;;;18.34;67.42
64758;BME280;51193;45.588;5.376;2022-10-16T22:28:39;96793.59;;;18.26;67.46
64758;BME280;51193;45.588;5.376;2022-10-16T22:31:24;96809.97;;;18.17;68.03
64758;BME280;51193;45.588;5.376;2022-10-16T22:37:09;96807.94;;;18.22;67.93
64758;BME280;51193;45.588;5.376;2022-10-16T22:40:10;96798.72;;;18.29;68.10
64758;BME280;51193;45.588;5.376;2022-10-16T22:42:48;96803.84;;;18.32;67.76
64758;BME280;51193;45.588;5.376;2022-10-16T22:45:21;96813.50;;;18.33;68.16
64758;BME280;51193;45.588;5.376;2022-10-16T22:48:05;96801.47;;;18.27;67.98
64758;BME280;51193;45.588;5.376;2022-10-16T22:53:38;96805.81;;;18.28;68.07
64758;BME280;51193;45.588;5.376;2022-10-16T22:59:13;96805.78;;;18.13;67.94
64758;BME280;51193;45.588;5.376;2022-10-16T23:02:00;96804.88;;;17.96;68.72
64758;BME280;51193;45.588;5.376;2022-10-16T23:08:05;96809.97;;;17.83;68.63
64758;BME280;51193;45.588;5.376;2022-10-16T23:10:53;96809.97;;;17.83;68.65
64758;BME280;51193;45.588;5.376;2022-10-16T23:13:44;96811.19;;;17.94;68.26
64758;BME280;51193;45.588;5.376;2022-10-16T23:19:46;96821.00;;;17.92;68.13
64758;BME280;51193;45.588;5.376;2022-10-16T23:22:35;96815.72;;;17.92;67.93
64758;BME280;51193;45.588;5.376;2022-10-16T23:30:22;96807.63;;;17.95;67.91
64758;BME280;51193;45.588;5.376;2022-10-16T23:36:15;96813.25;;;17.88;67.62
64758;BME280;51193;45.588;5.376;2022-10-16T23:39:09;96810.34;;;17.93;68.31
64758;BME280;51193;45.588;5.376;2022-10-16T23:41:55;96810.66;;;17.87;67.91
64758;BME280;51193;45.588;5.376;2022-10-16T23:47:47;96813.38;;;18.03;67.59
64758;BME280;51193;45.588;5.376;2022-10-16T23:50:32;96807.19;;;18.02;67.08
64758;BME280;51193;45.588;5.376;2022-10-16T23:53:03;96812.50;;;18.02;66.99
64758;BME280;51193;45.588;5.376;2022-10-16T23:58:38;96809.00;;;18.02;67.03
